Time;durP1;ratioP1;P1;durP2;ratioP2;P2;SDS_P1;SDS_P2;PMS_P1;PMS_P2;Temp;Humidity;BMP_temperature;BMP_pressure;BME280_temperature;BME280_humidity;BME280_pressure;Samples;Min_cycle;Max_cycle;Signal;HPM_P1;HPM_P2
2022/05/04 00:01:04;;;;;;;17.50;11.82;;;;;;;12.12;72.52;100796.56;6192815;23;20009;-72
2022/05/04 00:03:30;;;;;;;23.20;12.35;;;;;;;12.08;72.39;100792.75;6218096;23;20009;-72
2022/05/04 00:05:55;;;;;;;19.92;12.10;;;;;;;12.00;72.50;100797.66;6192257;23;20082;-73
2022/05/04 00:08:20;;;;;;;21.45;13.30;;;;;;;11.98;73.40;100793.50;6191243;23;20015;-72
2022/05/04 00:10:46;;;;;;;24.92;14.15;;;;;;;11.92;73.50;100800.84;6216277;23;20011;-73
2022/05/04 00:13:12;;;;;;;28.45;15.40;;;;;;;11.88;74.67;100799.72;6219521;23;20032;-72
2022/05/04 00:15:37;;;;;;;25.92;16.70;;;;;;;11.86;75.27;100801.91;6218024;23;20008;-74
2022/05/04 00:18:03;;;;;;;31.75;16.88;;;;;;;11.78;75.35;100794.19;6190104;23;20012;-72
2022/05/04 00:20:29;;;;;;;25.75;16.40;;;;;;;11.74;75.69;100790.31;6221786;23;20058;-72
2022/05/04 00:22:54;;;;;;;30.30;16.17;;;;;;;11.71;76.70;100788.97;6194845;23;20004;-73
2022/05/04 00:25:20;;;;;;;24.75;15.35;;;;;;;11.67;76.45;100794.13;6168537;23;20010;-71
2022/05/04 00:27:45;;;;;;;26.55;16.55;;;;;;;11.66;76.29;100795.19;6219578;23;20049;-74
2022/05/04 00:30:11;;;;;;;28.92;17.60;;;;;;;11.66;76.66;100789.72;6221243;23;20017;-73
2022/05/04 00:32:36;;;;;;;28.40;17.20;;;;;;;11.68;76.65;100797.69;6194666;23;19996;-74
2022/05/04 00:35:02;;;;;;;30.65;18.75;;;;;;;11.65;77.07;100795.47;6221690;23;20001;-74
2022/05/04 00:37:28;;;;;;;36.05;20.52;;;;;;;11.65;76.90;100796.31;6223355;23;20039;-73
2022/05/04 00:39:53;;;;;;;40.67;22.02;;;;;;;11.62;77.46;100785.88;6170021;23;20028;-73
2022/05/04 00:42:21;;;;;;;41.40;22.23;;;;;;;11.67;77.62;100793.31;6170094;23;20412;-74
2022/05/04 00:44:49;;;;;;;39.15;21.13;;;;;;;11.66;77.33;100787.00;6222044;23;20009;-75
2022/05/04 00:47:15;;;;;;;40.67;23.10;;;;;;;11.61;77.16;100784.22;6195076;23;20005;-74
2022/05/04 00:49:46;;;;;;;47.72;24.73;;;;;;;11.66;77.48;100797.94;6169747;23;20008;-74
2022/05/04 00:52:13;;;;;;;46.15;24.95;;;;;;;11.63;78.02;100784.78;6195029;23;20004;-75
2022/05/04 00:54:42;;;;;;;43.22;23.25;;;;;;;11.63;78.29;100793.00;6220570;23;20005;-73
2022/05/04 00:57:14;;;;;;;41.03;24.20;;;;;;;11.65;78.39;100790.00;6222126;23;20011;-77
2022/05/04 00:59:41;;;;;;;48.80;25.85;;;;;;;11.56;78.67;100781.44;6193980;23;20005;-72
2022/05/04 01:02:07;;;;;;;42.55;24.85;;;;;;;11.58;78.83;100792.97;6191610;23;20054;-72
2022/05/04 01:04:32;;;;;;;45.03;24.90;;;;;;;11.54;79.30;100780.91;6219398;23;20079;-72
2022/05/04 01:06:58;;;;;;;45.13;22.55;;;;;;;11.47;79.33;100781.13;6218511;23;20008;-72
2022/05/04 01:09:23;;;;;;;40.58;24.08;;;;;;;11.47;79.67;100781.13;6217296;23;20012;-73
2022/05/04 01:11:50;;;;;;;44.00;23.85;;;;;;;11.44;79.63;100783.56;6192428;23;20004;-72
2022/05/04 01:14:17;;;;;;;46.00;24.15;;;;;;;11.40;79.77;100780.50;6223062;22;20017;-73
2022/05/04 01:16:44;;;;;;;41.80;23.65;;;;;;;11.37;80.35;100775.56;6192964;23;20032;-71
2022/05/04 01:19:11;;;;;;;42.95;23.15;;;;;;;11.33;80.73;100778.03;6217162;23;20004;-71
2022/05/04 01:21:37;;;;;;;45.15;25.80;;;;;;;11.31;80.75;100780.19;6216042;23;20001;-71
2022/05/04 01:24:04;;;;;;;47.80;27.55;;;;;;;11.30;81.16;100780.44;6191606;23;20044;-71
2022/05/04 01:26:29;;;;;;;48.88;27.52;;;;;;;11.24;81.44;100768.63;6218298;23;20008;-72
2022/05/04 01:28:55;;;;;;;50.28;27.00;;;;;;;11.25;81.44;100775.75;6219550;23;20816;-72
2022/05/04 01:31:21;;;;;;;50.03;26.60;;;;;;;11.19;81.66;100760.38;6216405;23;20008;-72
2022/05/04 01:33:47;;;;;;;47.53;26.83;;;;;;;11.13;81.77;100762.25;6190947;23;20012;-72
2022/05/04 01:36:12;;;;;;;47.28;26.08;;;;;;;11.10;81.78;100761.97;6216062;23;20004;-71
2022/05/04 01:38:38;;;;;;;49.53;26.52;;;;;;;11.08;81.87;100753.16;6190507;23;20020;-72
2022/05/04 01:41:03;;;;;;;46.35;26.00;;;;;;;11.07;82.12;100751.50;6210421;23;20012;-68
2022/05/04 01:43:29;;;;;;;43.97;24.38;;;;;;;11.05;82.12;100756.44;6212179;23;20023;-69
2022/05/04 01:45:57;;;;;;;48.83;26.77;;;;;;;10.97;82.45;100747.63;6214540;23;20004;-68
2022/05/04 01:48:23;;;;;;;44.30;25.80;;;;;;;10.98;82.38;100760.22;6215580;23;20031;-67
2022/05/04 01:50:48;;;;;;;53.58;28.70;;;;;;;10.96;82.67;100756.91;6208041;23;20523;-67
2022/05/04 01:53:13;;;;;;;48.83;24.60;;;;;;;10.94;83.09;100753.63;6161508;23;20078;-68
2022/05/04 01:55:41;;;;;;;50.83;25.52;;;;;;;10.92;83.13;100755.78;6187951;23;20067;-69
2022/05/04 01:58:07;;;;;;;45.53;25.42;;;;;;;10.89;82.92;100753.56;6210863;23;20062;-68
2022/05/04 02:00:33;;;;;;;42.33;22.85;;;;;;;10.88;83.04;100760.13;6186829;23;20446;-67
2022/05/04 02:02:59;;;;;;;45.63;24.58;;;;;;;10.80;83.25;100746.91;6210240;23;20038;-68
2022/05/04 02:05:25;;;;;;;38.42;21.30;;;;;;;10.80;82.83;100746.91;6187885;23;20036;-73
2022/05/04 02:07:50;;;;;;;29.65;18.20;;;;;;;10.82;82.76;100761.19;6217249;23;20008;-72
2022/05/04 02:10:16;;;;;;;24.92;14.27;;;;;;;10.81;82.27;100759.53;6216138;23;20053;-71
2022/05/04 02:12:43;;;;;;;17.15;11.55;;;;;;;10.83;82.23;100754.59;6189872;23;20562;-72
2022/05/04 02:15:11;;;;;;;19.83;12.13;;;;;;;10.83;81.98;100757.34;6217315;23;20005;-72
2022/05/04 02:17:38;;;;;;;22.52;12.73;;;;;;;10.83;82.24;100746.38;6215865;23;20057;-72
2022/05/04 02:20:05;;;;;;;26.10;15.88;;;;;;;10.87;81.98;100758.47;6217855;23;20008;-73
2022/05/04 02:22:30;;;;;;;29.10;15.45;;;;;;;10.85;82.17;100760.66;6216106;23;20008;-73
2022/05/04 02:24:56;;;;;;;38.38;19.27;;;;;;;10.82;82.12;100763.91;6216787;23;20004;-72
2022/05/04 02:27:22;;;;;;;33.03;18.83;;;;;;;10.85;82.31;100766.13;6190333;23;20008;-72
2022/05/04 02:29:47;;;;;;;35.40;19.80;;;;;;;10.85;81.76;100759.81;6214606;23;20004;-73
2022/05/04 02:32:13;;;;;;;37.72;20.50;;;;;;;10.86;82.20;100762.28;6216275;23;19996;-71
2022/05/04 02:40:10;;;;;;;31.52;15.90;;;;;;;10.85;82.21;100749.72;6163203;23;1176270;-69
2022/05/04 02:42:36;;;;;;;34.60;19.00;;;;;;;10.92;81.71;100749.47;6213491;23;20008;-69
2022/05/04 02:45:05;;;;;;;33.38;19.80;;;;;;;10.93;81.06;100749.22;6187970;23;20084;-70
2022/05/04 02:47:30;;;;;;;37.22;18.30;;;;;;;10.92;81.19;100755.78;6215097;23;20003;-69
2022/05/04 02:49:56;;;;;;;34.03;18.75;;;;;;;10.90;81.11;100752.47;6211747;23;20020;-70
2022/05/04 02:52:21;;;;;;;33.53;17.83;;;;;;;10.89;80.77;100748.09;6163856;23;20382;-69
2022/05/04 02:54:47;;;;;;;30.08;16.35;;;;;;;10.87;80.70;100742.06;6212535;23;20015;-68
2022/05/04 02:57:12;;;;;;;30.80;15.85;;;;;;;10.84;80.51;100745.31;6213695;23;20015;-69
2022/05/04 02:59:40;;;;;;;27.35;13.88;;;;;;;10.81;80.10;100748.56;6217802;23;20058;-69
2022/05/04 03:04:49;;;;;;;30.53;16.97;;;;;;;10.73;80.58;100732.63;6217046;23;20007;-70
2022/05/04 03:07:15;;;;;;;29.00;16.52;;;;;;;10.68;80.61;100735.31;6217405;23;20049;-70
2022/05/04 03:09:40;;;;;;;29.17;16.95;;;;;;;10.65;81.22;100737.47;6214756;23;19996;-70
2022/05/04 03:12:06;;;;;;;28.00;16.02;;;;;;;10.58;81.12;100739.59;6215518;23;20088;-69
2022/05/04 03:14:32;;;;;;;27.75;16.15;;;;;;;10.56;81.42;100733.56;6213757;23;20044;-69
2022/05/04 03:16:57;;;;;;;29.92;17.55;;;;;;;10.51;81.62;100733.50;6212784;23;19997;-70
2022/05/04 03:19:24;;;;;;;26.60;15.15;;;;;;;10.52;81.46;100735.16;6165871;23;20004;-70
2022/05/04 03:21:51;;;;;;;32.03;15.65;;;;;;;10.47;81.46;100732.41;6191616;23;20011;-73
2022/05/04 03:24:17;;;;;;;30.77;16.35;;;;;;;10.47;81.74;100726.94;6219545;23;20012;-73
2022/05/04 03:26:42;;;;;;;31.10;17.30;;;;;;;10.46;81.84;100725.25;6219395;23;20005;-74
2022/05/04 03:29:08;;;;;;;28.17;16.17;;;;;;;10.45;82.52;100721.72;6218694;23;20004;-74
2022/05/04 03:31:34;;;;;;;26.02;14.07;;;;;;;10.46;81.66;100728.00;6216387;23;20015;-68
2022/05/04 03:34:01;;;;;;;25.67;13.45;;;;;;;10.44;82.14;100721.94;6187152;23;20008;-68
2022/05/04 03:36:26;;;;;;;30.63;15.93;;;;;;;10.45;81.77;100723.59;6217857;23;20004;-68
2022/05/04 03:38:52;;;;;;;26.75;15.63;;;;;;;10.47;81.65;100729.66;6188683;23;20051;-66
2022/05/04 03:41:17;;;;;;;23.70;14.55;;;;;;;10.47;81.75;100721.47;6212295;23;20000;-69
2022/05/04 03:43:43;;;;;;;23.92;13.70;;;;;;;10.45;82.15;100723.59;6163166;23;20004;-68
2022/05/04 03:46:23;;;;;;;24.02;13.43;;;;;;;10.46;81.95;100719.81;6162714;23;20016;-69
2022/05/04 03:48:53;;;;;;;22.05;13.20;;;;;;;10.42;81.90;100715.94;6186274;23;20111;-68
2022/05/04 03:51:21;;;;;;;24.25;14.02;;;;;;;10.37;82.18;100713.97;6188340;23;20091;-69
2022/05/04 03:53:48;;;;;;;27.38;13.55;;;;;;;10.38;82.47;100712.06;6187554;23;20004;-69
2022/05/04 03:56:14;;;;;;;20.83;12.75;;;;;;;10.36;82.43;100719.69;6189004;23;20031;-69
2022/05/04 03:58:40;;;;;;;24.52;13.30;;;;;;;10.18;82.70;100708.00;6186884;23;20020;-68
2022/05/04 04:01:06;;;;;;;27.25;13.63;;;;;;;10.26;82.92;100703.97;6163710;23;20005;-68
2022/05/04 04:03:32;;;;;;;26.92;14.18;;;;;;;10.26;82.67;100718.44;6217508;23;20000;-68
2022/05/04 04:05:58;;;;;;;25.20;13.40;;;;;;;10.23;83.04;100710.78;6215611;23;20028;-68
2022/05/04 04:08:24;;;;;;;17.58;10.68;;;;;;;10.21;82.91;100710.22;6215524;23;20013;-68
2022/05/04 04:10:49;;;;;;;23.20;13.27;;;;;;;10.16;82.71;100709.31;6210081;23;20007;-68
2022/05/04 04:13:15;;;;;;;17.20;11.15;;;;;;;10.14;83.32;100709.59;6217079;23;20008;-68
2022/05/04 04:15:42;;;;;;;20.83;11.88;;;;;;;10.09;83.59;100704.03;6189546;23;20015;-68
2022/05/04 04:18:08;;;;;;;18.70;11.23;;;;;;;10.11;83.19;100710.91;6216550;23;19999;-68
2022/05/04 04:23:19;;;;;;;21.27;11.70;;;;;;;10.09;83.71;100720.44;6194546;23;20086;-68
2022/05/04 04:25:44;;;;;;;20.15;11.38;;;;;;;10.05;84.21;100725.59;6189695;23;20083;-68
2022/05/04 04:28:10;;;;;;;18.77;11.70;;;;;;;10.02;84.18;100730.78;6189865;23;20432;-69
2022/05/04 04:30:39;;;;;;;19.25;11.93;;;;;;;9.98;84.92;100729.63;6190116;23;20005;-69
2022/05/04 04:33:06;;;;;;;16.00;11.05;;;;;;;9.91;84.49;100729.81;6216510;23;20008;-67
2022/05/04 04:35:33;;;;;;;19.50;11.43;;;;;;;9.89;85.20;100738.25;6189516;23;20008;-68
2022/05/04 04:37:58;;;;;;;17.52;11.18;;;;;;;9.89;85.23;100732.78;6189529;23;20024;-70
2022/05/04 04:40:24;;;;;;;17.25;11.70;;;;;;;9.89;85.49;100732.78;6191740;23;20032;-72
2022/05/04 04:42:50;;;;;;;20.13;11.63;;;;;;;9.88;85.62;100730.31;6218026;23;20008;-69
2022/05/04 04:45:15;;;;;;;19.02;11.60;;;;;;;9.86;86.05;100733.28;6217755;23;20019;-69
2022/05/04 04:47:41;;;;;;;18.00;11.13;;;;;;;9.84;85.68;100734.63;6214563;23;20016;-69
2022/05/04 04:50:07;;;;;;;15.13;10.43;;;;;;;9.79;85.88;100727.19;6217598;23;20083;-69
2022/05/04 04:52:32;;;;;;;15.50;9.95;;;;;;;9.76;85.84;100728.53;6161717;23;20091;-70
2022/05/04 04:54:58;;;;;;;18.00;10.52;;;;;;;9.79;85.51;100727.19;6218087;23;20000;-70
2022/05/04 04:57:23;;;;;;;15.75;9.65;;;;;;;9.79;85.72;100728.00;6217731;23;19992;-70
2022/05/04 04:59:49;;;;;;;15.45;10.25;;;;;;;9.81;85.99;100730.50;6215819;23;20013;-70
2022/05/04 05:02:15;;;;;;;14.98;10.27;;;;;;;9.83;86.07;100728.34;6218579;23;20328;-70
2022/05/04 05:04:44;;;;;;;15.65;10.43;;;;;;;9.85;85.58;100728.91;6166405;23;20082;-70
2022/05/04 05:07:09;;;;;;;15.25;10.60;;;;;;;9.88;85.78;100724.84;6166643;23;20009;-69
2022/05/04 05:09:35;;;;;;;15.82;10.77;;;;;;;9.94;85.34;100734.75;6165596;23;20040;-68
2022/05/04 05:12:00;;;;;;;15.23;10.18;;;;;;;9.99;85.71;100736.72;6218493;23;20005;-73
2022/05/04 05:17:10;;;;;;;13.37;9.97;;;;;;;10.06;85.35;100738.19;6216681;23;20023;-73
2022/05/04 05:19:35;;;;;;;14.50;10.18;;;;;;;10.12;84.74;100730.88;6219405;23;20230;-73
2022/05/04 05:22:01;;;;;;;12.98;9.65;;;;;;;10.18;84.71;100732.59;6218105;23;20083;-74
2022/05/04 05:24:26;;;;;;;11.88;9.45;;;;;;;10.23;84.22;100738.09;6216031;23;20423;-71
2022/05/04 05:26:51;;;;;;;15.48;10.98;;;;;;;10.29;84.63;100731.63;6216527;23;20024;-73
2022/05/04 05:29:17;;;;;;;14.27;9.80;;;;;;;10.31;84.01;100723.16;6190927;23;20013;-69
2022/05/04 05:31:43;;;;;;;10.75;8.15;;;;;;;10.40;83.78;100731.78;6216150;23;20009;-69
2022/05/04 05:34:08;;;;;;;10.57;8.15;;;;;;;10.48;83.77;100739.50;6215261;23;20007;-70
2022/05/04 05:36:33;;;;;;;12.27;8.93;;;;;;;10.51;83.69;100721.75;6228886;23;20012;-70
2022/05/04 05:38:59;;;;;;;11.90;9.05;;;;;;;10.58;82.98;100736.03;6204087;23;20597;-69
2022/05/04 05:41:25;;;;;;;14.10;9.30;;;;;;;10.61;83.13;100728.13;6230713;22;20857;-69
2022/05/04 05:43:50;;;;;;;11.77;8.43;;;;;;;10.67;82.72;100729.00;6235037;23;19992;-67
2022/05/04 05:46:16;;;;;;;13.93;9.60;;;;;;;10.72;82.79;100739.16;6236545;22;20495;-69
2022/05/04 05:48:42;;;;;;;13.20;10.55;;;;;;;10.72;82.48;100741.91;6236940;22;20016;-70
2022/05/04 05:51:07;;;;;;;16.63;10.23;;;;;;;10.70;82.13;100738.63;6198808;23;20332;-70
2022/05/04 05:53:33;;;;;;;16.90;10.02;;;;;;;10.71;82.44;100737.53;6199845;23;20000;-70
2022/05/04 05:55:59;;;;;;;14.15;9.82;;;;;;;10.71;82.59;100741.09;6203154;23;19988;-69
2022/05/04 05:58:24;;;;;;;13.23;9.52;;;;;;;10.71;82.37;100743.81;6220134;23;20020;-69
2022/05/04 06:00:51;;;;;;;12.07;8.38;;;;;;;10.75;82.37;100749.63;6164272;23;20004;-70
2022/05/04 06:03:18;;;;;;;12.80;9.13;;;;;;;10.82;82.50;100751.06;6184058;23;20032;-70
2022/05/04 06:05:44;;;;;;;13.95;9.25;;;;;;;10.89;82.08;100748.09;6185051;23;20023;-70
2022/05/04 06:08:09;;;;;;;15.48;9.93;;;;;;;11.07;81.86;100751.50;6216574;23;20099;-70
2022/05/04 06:10:38;;;;;;;13.13;9.70;;;;;;;11.13;80.97;100747.75;6215310;23;20032;-70
2022/05/04 06:13:04;;;;;;;14.00;8.90;;;;;;;11.21;80.81;100752.72;6212598;23;20401;-70
2022/05/04 06:15:30;;;;;;;12.40;9.25;;;;;;;11.27;80.35;100748.97;6189122;23;20427;-68
2022/05/04 06:17:56;;;;;;;11.98;9.23;;;;;;;11.43;79.88;100754.53;6213384;23;20013;-70
2022/05/04 06:20:23;;;;;;;10.82;8.63;;;;;;;11.45;79.41;100746.88;6163382;23;20012;-69
2022/05/04 06:22:49;;;;;;;16.55;9.52;;;;;;;11.53;79.32;100754.59;6214068;23;20008;-68
2022/05/04 06:25:14;;;;;;;11.88;8.50;;;;;;;11.63;79.07;100753.84;6214823;23;20009;-72
2022/05/04 06:27:40;;;;;;;9.25;6.97;;;;;;;11.74;79.55;100755.56;6188444;23;20024;-71
2022/05/04 06:35:35;;;;;;;9.32;7.75;;;;;;;12.08;77.89;100770.81;6170176;23;20004;-72
2022/05/04 06:38:01;;;;;;;10.57;7.55;;;;;;;12.09;77.04;100751.34;6215381;23;20015;-71
2022/05/04 06:40:26;;;;;;;9.02;7.30;;;;;;;12.13;77.38;100757.13;6214901;23;20017;-71
2022/05/04 06:42:52;;;;;;;10.52;7.90;;;;;;;12.23;76.62;100766.19;6214151;23;20020;-71
2022/05/04 06:45:20;;;;;;;9.55;6.95;;;;;;;12.20;76.88;100755.75;6213586;23;20082;-71
2022/05/04 06:47:45;;;;;;;11.80;7.35;;;;;;;12.03;76.86;100763.38;6214224;23;20107;-72
2022/05/04 06:50:11;;;;;;;10.07;6.85;;;;;;;11.95;77.50;100761.97;6213212;23;20059;-71
2022/05/04 06:52:37;;;;;;;10.90;7.57;;;;;;;11.86;77.44;100755.34;6216038;23;20439;-72
2022/05/04 06:55:04;;;;;;;7.55;5.88;;;;;;;11.85;77.17;100759.16;6194541;23;20028;-75
2022/05/04 06:57:31;;;;;;;8.25;6.32;;;;;;;11.91;77.32;100766.31;6195001;23;20000;-74
2022/05/04 06:59:59;;;;;;;8.82;6.03;;;;;;;11.91;77.36;100752.59;6219205;23;20520;-74
2022/05/04 07:02:25;;;;;;;10.25;6.38;;;;;;;11.93;76.73;100758.69;6222885;23;20001;-78
2022/05/04 07:04:50;;;;;;;6.28;4.25;;;;;;;11.98;76.94;100772.41;6192962;23;20020;-77
2022/05/04 07:07:16;;;;;;;7.22;5.82;;;;;;;12.01;76.63;100771.88;6169553;23;20005;-77
2022/05/04 07:09:41;;;;;;;6.65;5.47;;;;;;;12.02;76.82;100776.25;6195159;23;20424;-75
2022/05/04 07:12:07;;;;;;;8.55;5.70;;;;;;;11.98;75.94;100780.63;6221638;23;20408;-75
2022/05/04 07:14:33;;;;;;;7.97;6.20;;;;;;;11.87;76.06;100779.72;6221414;23;20193;-76
2022/05/04 07:16:59;;;;;;;8.95;5.63;;;;;;;12.05;75.86;100785.88;6221289;23;20008;-75
2022/05/04 07:19:24;;;;;;;7.95;5.32;;;;;;;12.43;74.64;100777.53;6190436;23;20059;-74
2022/05/04 07:21:50;;;;;;;7.70;5.80;;;;;;;12.83;73.64;100775.94;6216490;23;20000;-73
2022/05/04 07:24:16;;;;;;;5.07;4.57;;;;;;;13.22;72.40;100778.16;6191054;23;20008;-73
2022/05/04 07:26:41;;;;;;;7.70;5.00;;;;;;;13.46;70.47;100777.63;6213173;23;20008;-73
2022/05/04 07:29:07;;;;;;;7.30;4.88;;;;;;;13.65;70.01;100781.44;6216461;23;20005;-73
2022/05/04 07:31:33;;;;;;;5.57;4.97;;;;;;;13.74;69.11;100778.94;6186996;23;20086;-72
2022/05/04 07:33:59;;;;;;;8.30;4.22;;;;;;;13.82;68.89;100774.81;6214256;23;20016;-71
2022/05/04 07:36:24;;;;;;;6.90;4.55;;;;;;;13.81;68.18;100767.66;6189568;23;20013;-72
2022/05/04 07:38:50;;;;;;;5.38;4.32;;;;;;;13.68;68.65;100774.56;6217903;23;20008;-71
2022/05/04 07:44:00;;;;;;;5.22;3.90;;;;;;;13.29;69.38;100773.22;6217182;23;20019;-71
2022/05/04 07:46:29;;;;;;;6.28;3.95;;;;;;;13.18;69.78;100777.06;6164597;23;20307;-71
2022/05/04 07:48:55;;;;;;;8.35;4.15;;;;;;;13.21;69.42;100779.25;6189982;23;20048;-72
2022/05/04 07:51:21;;;;;;;7.32;4.72;;;;;;;13.44;69.71;100775.97;6190390;23;20005;-71
2022/05/04 07:53:46;;;;;;;8.15;4.22;;;;;;;13.85;68.62;100774.25;6188714;23;20012;-70
2022/05/04 07:56:12;;;;;;;7.65;4.45;;;;;;;14.13;67.50;100779.09;6215659;23;20008;-71
2022/05/04 07:58:37;;;;;;;4.82;4.07;;;;;;;14.55;66.46;100781.66;6216476;23;20005;-71
2022/05/04 08:06:31;;;;;;;5.55;4.20;;;;;;;15.75;62.42;100772.97;6216880;23;20019;-71
2022/05/04 08:08:56;;;;;;;5.07;3.97;;;;;;;15.83;60.48;100774.31;6191159;23;20012;-70
2022/05/04 08:11:22;;;;;;;8.77;4.35;;;;;;;15.77;60.13;100773.50;6190206;23;20016;-70
2022/05/04 08:13:47;;;;;;;5.30;4.00;;;;;;;15.74;60.26;100776.84;6218164;23;20005;-70
2022/05/04 08:16:13;;;;;;;5.88;4.35;;;;;;;15.72;60.05;100776.31;6191298;23;20008;-70
2022/05/04 08:18:42;;;;;;;5.65;4.20;;;;;;;15.78;59.24;100772.41;6214595;23;20004;-70
2022/05/04 08:21:10;;;;;;;5.18;3.72;;;;;;;15.96;59.10;100770.00;6217462;23;20049;-70
2022/05/04 08:23:35;;;;;;;5.20;4.38;;;;;;;16.11;58.42;100772.59;6215698;23;20009;-71
2022/05/04 08:26:02;;;;;;;5.20;3.63;;;;;;;16.39;58.39;100765.31;6187675;23;20008;-71
2022/05/04 08:28:27;;;;;;;5.70;3.50;;;;;;;16.96;57.75;100772.00;6216931;23;20060;-70
2022/05/04 08:30:53;;;;;;;5.75;3.17;;;;;;;17.27;55.47;100767.59;6217251;23;20008;-71
2022/05/04 08:33:19;;;;;;;4.07;3.08;;;;;;;17.56;54.01;100772.03;6186317;23;20027;-68
2022/05/04 08:35:45;;;;;;;4.47;3.42;;;;;;;17.61;53.81;100774.72;6214402;23;20012;-68
2022/05/04 08:38:12;;;;;;;4.78;3.88;;;;;;;17.93;53.62;100786.88;6215346;23;20078;-68
2022/05/04 08:40:38;;;;;;;4.07;3.35;;;;;;;18.01;52.74;100776.22;6189493;23;20040;-68
2022/05/04 08:43:08;;;;;;;6.03;4.03;;;;;;;18.03;52.28;100773.97;6188252;23;20075;-68
2022/05/04 08:45:43;;;;;;;4.82;3.45;;;;;;;18.12;52.31;100772.09;6189706;23;20064;-68
2022/05/04 08:48:08;;;;;;;4.25;3.05;;;;;;;18.43;51.61;100777.00;6212872;23;20004;-67
2022/05/04 08:50:37;;;;;;;5.93;3.70;;;;;;;18.67;50.51;100783.09;6188372;23;20027;-68
2022/05/04 08:53:04;;;;;;;4.32;3.50;;;;;;;18.93;49.83;100774.22;6214821;23;20005;-68
2022/05/04 08:55:30;;;;;;;3.58;2.75;;;;;;;19.20;49.19;100766.88;6215298;23;20011;-68
2022/05/04 08:57:55;;;;;;;4.82;3.22;;;;;;;19.26;48.15;100771.19;6211996;23;20012;-68
2022/05/04 09:00:21;;;;;;;3.65;3.05;;;;;;;19.21;48.11;100765.75;6214518;23;20004;-68
2022/05/04 09:02:47;;;;;;;6.13;3.60;;;;;;;19.09;48.20;100763.56;6216234;23;20005;-68
2022/05/04 09:05:24;;;;;;;5.13;3.40;;;;;;;18.92;49.83;100755.94;6213620;23;20077;-67
2022/05/04 09:07:52;;;;;;;4.50;3.22;;;;;;;19.19;48.99;100776.38;6215577;23;20438;-67
2022/05/04 09:10:34;;;;;;;5.65;3.53;;;;;;;18.99;49.30;100772.13;6189063;23;20013;-67
2022/05/04 09:13:00;;;;;;;4.53;3.30;;;;;;;18.55;49.91;100770.94;6190022;23;20028;-67
2022/05/04 09:15:34;;;;;;;3.50;3.08;;;;;;;19.12;49.77;100776.00;6187103;23;20008;-68
2022/05/04 09:18:01;;;;;;;3.22;2.50;;;;;;;19.70;47.66;100775.00;6216020;23;20008;-67
2022/05/04 09:20:45;;;;;;;4.80;3.28;;;;;;;20.81;46.03;100766.81;6215860;23;20000;-68
2022/05/04 09:23:29;;;;;;;2.83;2.53;;;;;;;22.12;42.19;100781.25;6191645;23;20079;-67
2022/05/04 09:26:00;;;;;;;3.25;2.90;;;;;;;23.12;40.46;100785.47;6216835;23;20027;-68
2022/05/04 09:28:28;;;;;;;3.00;2.70;;;;;;;23.78;37.23;100787.38;6213240;23;20039;-67
2022/05/04 09:30:59;;;;;;;5.88;2.85;;;;;;;23.94;37.50;100789.53;6188301;23;20004;-68
2022/05/04 09:33:27;;;;;;;4.32;2.97;;;;;;;23.48;37.81;100789.53;6218300;23;20008;-70
2022/05/04 09:35:53;;;;;;;3.95;2.88;;;;;;;22.48;38.20;100782.66;6212869;23;20008;-71
2022/05/04 09:46:43;;;;;;;4.68;2.92;;;;;;;21.77;41.11;100798.09;6216120;23;20015;-73
2022/05/04 09:49:14;;;;;;;6.55;3.33;;;;;;;21.09;43.43;100792.34;6187699;23;20004;-72
2022/05/04 09:51:42;;;;;;;5.20;3.28;;;;;;;20.68;44.02;100786.13;6215023;23;20030;-73
2022/05/04 09:54:27;;;;;;;4.00;2.72;;;;;;;20.81;43.94;100775.16;6188874;23;20001;-72
2022/05/04 09:57:04;;;;;;;8.20;3.30;;;;;;;20.63;43.98;100793.75;6210917;23;20000;-73
2022/05/04 09:59:31;;;;;;;2.97;2.22;;;;;;;20.71;43.48;100793.78;6213494;23;20062;-73
2022/05/04 10:02:03;;;;;;;3.40;2.63;;;;;;;20.60;43.93;100789.66;6189223;23;20012;-72
2022/05/04 10:04:33;;;;;;;5.70;2.65;;;;;;;20.51;44.81;100797.19;6216115;23;20007;-73
2022/05/04 10:07:00;;;;;;;4.20;2.58;;;;;;;20.49;45.19;100793.91;6191405;23;20009;-73
2022/05/04 10:09:27;;;;;;;3.60;2.80;;;;;;;20.35;45.52;100805.16;6215086;23;20059;-73
2022/05/04 10:11:59;;;;;;;2.80;2.08;;;;;;;20.42;45.70;100804.69;6218078;23;20008;-72
2022/05/04 10:14:26;;;;;;;3.28;2.45;;;;;;;20.31;45.27;100804.16;6191183;23;20021;-72
2022/05/04 10:17:04;;;;;;;3.33;2.28;;;;;;;20.13;45.93;100809.66;6216402;23;20008;-73
2022/05/04 10:20:06;;;;;;;3.33;2.45;;;;;;;19.89;46.09;100798.97;6217165;23;20014;-72
2022/05/04 10:22:43;;;;;;;3.13;2.05;;;;;;;19.92;46.43;100798.31;6187653;23;20585;-71
2022/05/04 10:25:11;;;;;;;4.25;2.72;;;;;;;19.62;46.51;100789.66;6215708;23;20019;-68
2022/05/04 10:27:42;;;;;;;2.15;1.55;;;;;;;19.72;46.88;100788.56;6191153;23;20004;-69
2022/05/04 10:32:59;;;;;;;2.83;2.50;;;;;;;19.99;46.76;100793.13;6191612;23;20062;-69
2022/05/04 10:35:37;;;;;;;3.15;2.83;;;;;;;19.67;45.94;100786.75;6215126;23;20026;-69
2022/05/04 10:38:05;;;;;;;3.45;2.58;;;;;;;19.90;46.61;100783.94;6215778;23;20011;-68
2022/05/04 10:40:54;;;;;;;3.03;2.20;;;;;;;20.37;46.04;100780.63;6215319;23;20012;-69
2022/05/04 10:43:50;;;;;;;2.13;1.90;;;;;;;20.90;44.83;100781.56;6214745;23;20016;-72
2022/05/04 10:46:23;;;;;;;3.35;2.58;;;;;;;20.62;44.23;100775.44;6218013;23;20419;-73
2022/05/04 10:49:13;;;;;;;3.95;2.60;;;;;;;20.45;45.94;100781.81;6217835;23;20092;-73
2022/05/04 10:51:40;;;;;;;3.75;3.00;;;;;;;19.90;45.95;100781.16;6189259;23;20009;-73
2022/05/04 10:54:12;;;;;;;4.03;3.53;;;;;;;19.25;47.58;100785.38;6213650;23;20004;-73
2022/05/04 10:56:50;;;;;;;3.78;3.17;;;;;;;19.05;47.93;100775.59;6187858;23;20014;-73
2022/05/04 10:59:24;;;;;;;3.67;3.03;;;;;;;19.28;47.96;100780.00;6191205;23;20008;-73
2022/05/04 11:01:50;;;;;;;3.88;3.25;;;;;;;19.59;47.56;100773.66;6190997;23;20013;-73
2022/05/04 11:04:22;;;;;;;4.00;3.22;;;;;;;19.97;45.92;100778.72;6214938;23;20009;-73
2022/05/04 11:07:02;;;;;;;3.80;3.20;;;;;;;20.30;45.87;100780.31;6209331;23;20005;-75
2022/05/04 11:09:32;;;;;;;3.17;2.83;;;;;;;20.79;44.87;100774.69;6212377;23;20001;-73
2022/05/04 11:12:02;;;;;;;5.85;3.08;;;;;;;21.90;42.98;100778.72;6213656;23;20009;-71
2022/05/04 11:14:46;;;;;;;2.92;2.42;;;;;;;24.07;37.40;100781.97;6187169;23;20058;-71
2022/05/04 11:17:13;;;;;;;3.00;2.40;;;;;;;26.34;34.09;100794.72;6214416;23;19997;-73
2022/05/04 11:19:47;;;;;;;2.53;2.15;;;;;;;27.87;30.57;100800.22;6219226;23;20015;-72
2022/05/04 11:22:14;;;;;;;3.28;2.33;;;;;;;28.39;30.02;100792.25;6220242;23;20007;-73
2022/05/04 11:24:40;;;;;;;2.65;2.45;;;;;;;30.99;26.20;100795.53;6191796;23;20034;-73
2022/05/04 11:27:06;;;;;;;3.50;2.08;;;;;;;34.97;21.96;100784.94;6214906;23;20008;-73
2022/05/04 11:29:33;;;;;;;3.40;1.95;;;;;;;36.71;19.69;100802.81;6217877;23;20016;-72
2022/05/04 11:32:05;;;;;;;2.03;1.65;;;;;;;36.18;20.13;100789.16;6185359;23;20015;-73
2022/05/04 11:34:36;;;;;;;3.28;1.90;;;;;;;35.45;18.98;100785.91;6217400;23;20059;-72
2022/05/04 11:37:07;;;;;;;3.83;2.03;;;;;;;34.69;20.50;100786.09;6189929;23;20007;-73
2022/05/04 11:39:33;;;;;;;1.88;1.60;;;;;;;32.49;22.16;100787.59;6214630;23;20035;-72
2022/05/04 11:42:00;;;;;;;3.53;2.50;;;;;;;31.77;23.71;100785.63;6211931;23;19992;-73
2022/05/04 11:44:28;;;;;;;2.58;2.08;;;;;;;31.09;24.12;100775.03;6166512;23;20004;-73
2022/05/04 11:46:55;;;;;;;5.40;1.92;;;;;;;29.84;26.18;100766.63;6220991;23;20096;-72
2022/05/04 11:49:22;;;;;;;4.00;1.95;;;;;;;29.23;26.41;100770.47;6216441;23;20004;-72
2022/05/04 11:51:49;;;;;;;2.03;1.83;;;;;;;28.98;27.52;100767.31;6218807;23;20012;-74
2022/05/04 11:54:15;;;;;;;3.00;2.67;;;;;;;27.18;29.77;100753.25;6216791;23;20008;-73
2022/05/04 11:56:41;;;;;;;5.13;2.10;;;;;;;26.37;31.90;100756.75;6218057;23;20059;-73